createdAt,value
2022-11-30T00:01:52.530Z,100448.25
2022-11-30T00:04:20.587Z,100444.50
2022-11-30T00:06:48.541Z,100442.31
2022-11-30T00:09:16.507Z,100437.94
2022-11-30T00:11:44.479Z,100440.63
2022-11-30T00:14:12.481Z,100445.94
2022-11-30T00:16:41.927Z,100444.63
2022-11-30T00:19:09.956Z,100445.22
2022-11-30T00:21:37.891Z,100430.72
2022-11-30T00:24:06.956Z,100427.19
2022-11-30T00:26:34.896Z,100431.44
2022-11-30T00:29:02.905Z,100425.03
2022-11-30T00:31:30.897Z,100437.50
2022-11-30T00:34:00.412Z,100438.69
2022-11-30T00:36:28.374Z,100428.06
2022-11-30T00:38:56.477Z,100435.28
2022-11-30T00:41:24.508Z,100430.81
2022-11-30T00:43:52.519Z,100426.13
2022-11-30T00:46:20.584Z,100429.25
2022-11-30T00:48:48.611Z,100424.66
2022-11-30T00:51:18.642Z,100419.56
2022-11-30T00:53:47.753Z,100416.22
2022-11-30T00:56:15.823Z,100423.94
2022-11-30T00:58:43.753Z,100424.06
2022-11-30T01:01:11.777Z,100417.28
2022-11-30T01:03:39.755Z,100422.72
2022-11-30T01:06:09.698Z,100416.69
2022-11-30T01:08:39.046Z,100422.72
2022-11-30T01:11:08.325Z,100419.56
2022-11-30T01:13:36.328Z,100418.59
2022-11-30T01:16:09.919Z,100417.53
2022-11-30T01:18:38.176Z,100416.22
2022-11-30T01:21:07.758Z,100420.53
2022-11-30T01:23:35.819Z,100412.69
2022-11-30T01:26:05.296Z,100402.91
2022-11-30T01:28:33.360Z,100405.31
2022-11-30T01:31:02.040Z,100398.06
2022-11-30T01:33:29.976Z,100392.41
2022-11-30T01:36:02.180Z,100396.13
2022-11-30T01:38:33.161Z,100388.88
2022-11-30T01:41:01.131Z,100403.16
2022-11-30T01:43:40.415Z,100395.41
2022-11-30T01:46:13.612Z,100393.59
2022-11-30T01:48:41.626Z,100381.88
2022-11-30T01:51:09.739Z,100389.13
2022-11-30T01:53:37.678Z,100394.19
2022-11-30T01:56:06.008Z,100388.88
2022-11-30T01:58:34.971Z,100396.38
2022-11-30T02:01:05.197Z,100392.63
2022-11-30T02:03:35.839Z,100406.03
2022-11-30T02:06:03.846Z,100399.25
2022-11-30T02:08:32.009Z,100394.78
2022-11-30T02:11:01.318Z,100404.84
2022-11-30T02:13:38.938Z,100383.44
2022-11-30T02:16:12.941Z,100397.31
2022-11-30T02:18:44.817Z,100402.66
2022-11-30T02:21:14.191Z,100406.03
2022-11-30T02:24:08.312Z,100404.84
2022-11-30T02:26:53.027Z,100392.00
2022-11-30T02:29:22.766Z,100407.00
2022-11-30T02:31:52.286Z,100400.81
2022-11-30T02:34:21.328Z,100399.47
2022-11-30T02:36:49.297Z,100394.88
2022-11-30T02:39:18.082Z,100398.28
2022-11-30T02:41:46.140Z,100401.53
2022-11-30T02:44:14.108Z,100402.38
2022-11-30T02:47:17.757Z,100405.75
2022-11-30T02:49:50.625Z,100402.13
2022-11-30T02:52:19.946Z,100394.88
2022-11-30T02:54:48.224Z,100396.78
2022-11-30T02:57:16.462Z,100391.25
2022-11-30T02:59:44.394Z,100392.09
2022-11-30T03:02:12.348Z,100399.56
2022-11-30T03:04:40.326Z,100399.34
2022-11-30T03:07:09.667Z,100405.28
2022-11-30T03:09:37.608Z,100394.34
2022-11-30T03:12:05.970Z,100399.78
2022-11-30T03:14:33.983Z,100391.34
2022-11-30T03:17:01.972Z,100391.00
2022-11-30T03:19:30.051Z,100387.59
2022-11-30T03:21:58.014Z,100391.00
2022-11-30T03:24:27.371Z,100396.31
2022-11-30T03:26:55.373Z,100383.97
2022-11-30T03:29:23.299Z,100392.19
2022-11-30T03:31:51.303Z,100391.75
2022-11-30T03:34:19.199Z,100393.69
2022-11-30T03:36:47.161Z,100390.75
2022-11-30T03:39:15.131Z,100387.84
2022-11-30T03:41:44.479Z,100382.28
2022-11-30T03:44:12.448Z,100389.53
2022-11-30T03:46:40.541Z,100387.84
2022-11-30T03:49:08.567Z,100388.09
2022-11-30T03:51:36.606Z,100385.19
2022-11-30T03:54:04.732Z,100383.00
2022-11-30T03:56:32.694Z,100382.16
2022-11-30T03:59:02.061Z,100384.66
2022-11-30T04:01:30.016Z,100389.31
2022-11-30T04:03:57.998Z,100395.72
2022-11-30T04:06:25.990Z,100394.88
2022-11-30T04:08:53.952Z,100396.31
2022-11-30T04:11:21.901Z,100399.47
2022-11-30T04:13:49.830Z,100395.38
2022-11-30T04:16:19.191Z,100396.56
2022-11-30T04:18:47.261Z,100408.06
2022-11-30T04:21:15.271Z,100403.81
2022-11-30T04:23:43.249Z,100409.38
2022-11-30T04:26:13.412Z,100412.75
2022-11-30T04:28:41.311Z,100408.69
2022-11-30T04:31:09.552Z,100417.00
2022-11-30T04:33:38.952Z,100420.75
2022-11-30T04:36:07.780Z,100419.78
2022-11-30T04:38:37.170Z,100415.53
2022-11-30T04:41:08.820Z,100411.06
2022-11-30T04:43:37.146Z,100417.59
2022-11-30T04:46:05.116Z,100407.22
2022-11-30T04:48:33.094Z,100423.91
2022-11-30T04:51:03.714Z,100414.81
2022-11-30T04:53:31.683Z,100421.56
2022-11-30T04:55:59.677Z,100416.25
2022-11-30T04:58:27.699Z,100422.31
2022-11-30T05:00:55.978Z,100417.09
2022-11-30T05:03:23.941Z,100423.28
2022-11-30T05:05:51.907Z,100424.13
2022-11-30T05:08:21.314Z,100420.97
2022-11-30T05:10:53.411Z,100421.56
2022-11-30T05:13:21.541Z,100428.09
2022-11-30T05:15:49.773Z,100437.78
2022-11-30T05:18:17.800Z,100440.34
2022-11-30T05:20:49.099Z,100434.66
2022-11-30T05:23:17.347Z,100438.63
2022-11-30T05:25:46.712Z,100439.88
2022-11-30T05:28:14.788Z,100445.94
2022-11-30T05:30:43.540Z,100444.22
2022-11-30T05:33:11.628Z,100439.13
2022-11-30T05:35:39.645Z,100447.59
2022-11-30T05:38:07.637Z,100454.38
2022-11-30T05:40:35.637Z,100466.94
2022-11-30T05:43:05.392Z,100465.00
2022-11-30T05:45:33.323Z,100466.94
2022-11-30T05:48:01.297Z,100465.25
2022-11-30T05:50:29.306Z,100457.25
2022-11-30T05:52:57.517Z,100465.00
2022-11-30T05:55:25.574Z,100466.44
2022-11-30T05:57:53.489Z,100465.63
2022-11-30T06:00:23.606Z,100470.91
2022-11-30T06:02:56.778Z,100462.69
2022-11-30T06:05:24.777Z,100463.00
2022-11-30T06:07:52.770Z,100468.94
2022-11-30T06:10:20.793Z,100474.63
2022-11-30T06:12:49.726Z,100478.72
2022-11-30T06:15:17.784Z,100481.13
2022-11-30T06:17:47.074Z,100482.56
2022-11-30T06:20:16.215Z,100484.28
2022-11-30T06:22:46.532Z,100478.69
2022-11-30T06:25:15.040Z,100480.84
2022-11-30T06:27:43.845Z,100482.78
2022-11-30T06:30:13.141Z,100479.53
2022-11-30T06:32:41.250Z,100481.56
2022-11-30T06:35:10.893Z,100493.09
2022-11-30T06:37:38.900Z,100488.59
2022-11-30T06:40:08.473Z,100478.63
2022-11-30T06:42:37.095Z,100489.78
2022-11-30T06:45:05.962Z,100482.50
2022-11-30T06:47:33.979Z,100488.31
2022-11-30T06:50:01.938Z,100491.97
2022-11-30T06:52:32.595Z,100491.13
2022-11-30T06:55:00.586Z,100497.28
2022-11-30T06:57:29.204Z,100500.56
2022-11-30T06:59:57.205Z,100500.44
2022-11-30T07:02:25.129Z,100498.22
2022-11-30T07:04:53.074Z,100500.41
2022-11-30T07:07:21.251Z,100492.41
2022-11-30T07:09:50.808Z,100493.81
2022-11-30T07:12:18.853Z,100496.38
2022-11-30T07:14:47.162Z,100500.47
2022-11-30T07:17:15.382Z,100503.06
2022-11-30T07:19:43.333Z,100501.94
2022-11-30T07:22:11.322Z,100507.78
2022-11-30T07:24:56.531Z,100506.63
2022-11-30T07:27:25.923Z,100497.97
2022-11-30T07:29:53.897Z,100503.63
2022-11-30T07:32:21.830Z,100495.78
2022-11-30T07:34:50.076Z,100493.81
2022-11-30T07:37:18.284Z,100494.78
2022-11-30T07:39:46.256Z,100511.50
2022-11-30T07:42:14.210Z,100501.94
2022-11-30T07:44:43.586Z,100504.59
2022-11-30T07:47:11.588Z,100504.28
2022-11-30T07:49:40.346Z,100509.13
2022-11-30T07:52:08.443Z,100522.44
2022-11-30T07:54:36.444Z,100530.91
2022-11-30T07:57:04.435Z,100538.13
2022-11-30T07:59:32.426Z,100537.16
2022-11-30T08:02:01.997Z,100527.00
2022-11-30T08:04:30.165Z,100521.16
2022-11-30T08:06:59.076Z,100535.22
2022-11-30T08:09:27.103Z,100529.88
2022-11-30T08:11:55.063Z,100532.19
2022-11-30T08:14:22.990Z,100526.75
2022-11-30T08:16:51.797Z,100531.50
2022-11-30T08:19:21.191Z,100535.22
2022-11-30T08:21:49.190Z,100536.91
2022-11-30T08:24:17.307Z,100517.56
2022-11-30T08:26:45.362Z,100514.06
2022-11-30T08:29:13.305Z,100520.84
2022-11-30T08:31:41.449Z,100526.75
2022-11-30T08:34:11.142Z,100521.16
2022-11-30T08:36:40.752Z,100526.75
2022-11-30T08:39:09.501Z,100523.94
2022-11-30T08:41:39.181Z,100519.97
2022-11-30T08:44:07.387Z,100525.19
2022-11-30T08:46:50.828Z,100522.53
2022-11-30T08:52:18.598Z,100522.13
2022-11-30T08:54:47.774Z,100521.03
2022-11-30T08:57:16.239Z,100526.75
2022-11-30T08:59:44.316Z,100519.47
2022-11-30T09:02:12.642Z,100522.25
2022-11-30T09:04:40.655Z,100519.47
2022-11-30T09:07:09.965Z,100516.69
2022-11-30T09:09:37.903Z,100523.78
2022-11-30T09:12:06.183Z,100521.56
2022-11-30T09:14:34.147Z,100518.69
2022-11-30T09:17:02.097Z,100519.16
2022-11-30T09:19:30.145Z,100517.06
2022-11-30T09:21:58.120Z,100515.25
2022-11-30T09:24:27.461Z,100511.84
2022-11-30T09:26:56.370Z,100517.00
2022-11-30T09:29:24.467Z,100504.56
2022-11-30T09:31:52.752Z,100502.09
2022-11-30T09:34:20.836Z,100495.78
2022-11-30T09:36:48.800Z,100497.47
2022-11-30T09:39:16.829Z,100490.88
2022-11-30T09:42:18.408Z,100470.75
2022-11-30T09:44:51.198Z,100482.22
2022-11-30T09:47:27.628Z,100484.50
2022-11-30T09:49:57.234Z,100483.97
2022-11-30T09:52:28.171Z,100485.66
2022-11-30T09:54:56.165Z,100478.63
2022-11-30T09:57:27.585Z,100477.06
2022-11-30T09:59:56.708Z,100484.94
2022-11-30T10:02:27.686Z,100476.34
2022-11-30T10:04:55.804Z,100483.56
2022-11-30T10:07:34.247Z,100476.91
2022-11-30T10:12:57.957Z,100468.72
2022-11-30T10:15:29.718Z,100479.38
2022-11-30T10:17:59.008Z,100477.84
2022-11-30T10:20:33.253Z,100479.91
2022-11-30T10:23:08.359Z,100483.84
2022-11-30T10:25:40.968Z,100480.47
2022-11-30T10:28:45.127Z,100465.25
2022-11-30T10:31:04.530Z,100473.19
2022-11-30T10:33:38.510Z,100476.03
2022-11-30T10:36:09.822Z,100479.66
2022-11-30T10:38:39.835Z,100476.19
2022-11-30T10:41:11.343Z,100475.91
2022-11-30T10:43:43.651Z,100472.81
2022-11-30T10:46:17.144Z,100475.47
2022-11-30T10:48:47.319Z,100481.41
2022-11-30T10:51:15.347Z,100474.72
2022-11-30T10:53:43.404Z,100477.38
2022-11-30T10:56:12.035Z,100470.88
2022-11-30T10:58:42.482Z,100467.91
2022-11-30T11:01:11.250Z,100464.25
2022-11-30T11:03:39.307Z,100466.31
2022-11-30T11:06:15.495Z,100464.03
2022-11-30T11:08:45.583Z,100457.53
2022-11-30T11:11:30.955Z,100443.84
2022-11-30T11:14:17.583Z,100468.19
2022-11-30T11:16:58.548Z,100460.56
2022-11-30T11:19:37.218Z,100460.56
2022-11-30T11:22:06.795Z,100457.53
2022-11-30T11:24:34.826Z,100462.41
2022-11-30T11:27:02.856Z,100457.22
2022-11-30T11:29:34.551Z,100466.25
2022-11-30T11:32:23.054Z,100470.75
2022-11-30T11:34:51.616Z,100480.81
2022-11-30T11:37:22.087Z,100479.91
2022-11-30T11:40:05.642Z,100475.38
2022-11-30T11:42:36.834Z,100479.25
2022-11-30T11:45:07.052Z,100474.72
2022-11-30T11:47:39.638Z,100476.22
2022-11-30T11:50:31.787Z,100469.78
2022-11-30T11:53:15.419Z,100476.94
2022-11-30T11:55:43.670Z,100474.41
2022-11-30T11:58:15.756Z,100473.94
2022-11-30T12:00:45.382Z,100476.03
2022-11-30T12:03:18.723Z,100480.34
2022-11-30T12:05:49.575Z,100485.91
2022-11-30T12:08:20.344Z,100484.75
2022-11-30T12:10:52.134Z,100484.28
2022-11-30T12:13:22.149Z,100487.22
2022-11-30T12:16:01.612Z,100481.63
2022-11-30T12:18:32.140Z,100489.28
2022-11-30T12:21:01.627Z,100495.34
2022-11-30T12:23:40.153Z,100487.72
2022-11-30T12:26:10.819Z,100494.44
2022-11-30T12:28:41.481Z,100489.69
2022-11-30T12:31:13.241Z,100494.50
2022-11-30T12:33:55.938Z,100498.59
2022-11-30T12:36:27.191Z,100501.00
2022-11-30T12:38:57.157Z,100503.22
2022-11-30T12:41:33.026Z,100496.97
2022-11-30T12:44:10.469Z,100508.00
2022-11-30T12:46:42.327Z,100496.69
2022-11-30T12:49:18.160Z,100503.38
2022-11-30T12:51:48.437Z,100510.41
2022-11-30T12:54:18.736Z,100510.50
2022-11-30T12:56:48.726Z,100513.88
2022-11-30T12:59:24.119Z,100511.50
2022-11-30T13:02:14.711Z,100509.81
2022-11-30T13:04:44.913Z,100512.84
2022-11-30T13:07:17.061Z,100513.69
2022-11-30T13:09:47.579Z,100525.56
2022-11-30T13:12:17.765Z,100521.31
2022-11-30T13:14:45.992Z,100522.03
2022-11-30T13:17:18.400Z,100531.50
2022-11-30T13:19:51.921Z,100526.19
2022-11-30T13:22:24.864Z,100529.09
2022-11-30T13:24:58.805Z,100530.56
2022-11-30T13:27:29.965Z,100531.91
2022-11-30T13:30:06.515Z,100528.06
2022-11-30T13:35:43.735Z,100527.81
2022-11-30T13:41:06.122Z,100528.25
2022-11-30T13:43:36.227Z,100530.97
2022-11-30T13:46:08.501Z,100524.44
2022-11-30T13:48:40.559Z,100518.91
2022-11-30T13:51:08.566Z,100520.22
2022-11-30T13:53:37.617Z,100525.91
2022-11-30T13:56:07.949Z,100531.47
2022-11-30T13:58:36.014Z,100527.59
2022-11-30T14:04:33.215Z,100530.63
2022-11-30T14:07:01.264Z,100538.28
2022-11-30T14:10:08.577Z,100537.06
2022-11-30T14:12:58.843Z,100535.41
2022-11-30T14:15:45.763Z,100529.16
2022-11-30T14:18:20.646Z,100524.69
2022-11-30T14:20:51.807Z,100520.81
2022-11-30T14:23:22.210Z,100511.66
2022-11-30T14:25:51.078Z,100528.72
2022-11-30T14:28:19.702Z,100524.97
2022-11-30T14:30:47.766Z,100524.97
2022-11-30T14:33:19.849Z,100540.22
2022-11-30T14:35:51.545Z,100524.00
2022-11-30T14:38:24.356Z,100531.59
2022-11-30T14:40:52.611Z,100541.19
2022-11-30T14:43:20.698Z,100536.09
2022-11-30T14:46:03.042Z,100535.88
2022-11-30T14:48:33.845Z,100540.72
2022-11-30T14:51:04.003Z,100533.94
2022-11-30T14:53:36.226Z,100544.59
2022-11-30T14:56:08.276Z,100544.81
2022-11-30T14:58:39.056Z,100540.47
2022-11-30T15:01:14.893Z,100546.19
2022-11-30T15:03:42.840Z,100550.88
2022-11-30T15:06:17.047Z,100549.69
2022-11-30T15:08:47.843Z,100543.63
2022-11-30T15:11:16.404Z,100547.00
2022-11-30T15:13:45.900Z,100543.41
2022-11-30T15:16:19.078Z,100541.72
2022-11-30T15:18:47.136Z,100544.03
2022-11-30T15:21:18.031Z,100547.75
2022-11-30T15:23:50.845Z,100555.75
2022-11-30T15:26:21.255Z,100545.34
2022-11-30T15:28:55.522Z,100545.34
2022-11-30T15:31:23.926Z,100547.53
2022-11-30T15:33:51.930Z,100548.97
2022-11-30T15:36:32.841Z,100547.88
2022-11-30T15:39:02.099Z,100555.97
2022-11-30T15:41:30.026Z,100548.97
2022-11-30T15:43:58.225Z,100546.06
2022-11-30T15:46:30.908Z,100553.09
2022-11-30T15:49:14.076Z,100551.91
2022-11-30T15:51:44.374Z,100551.91
2022-11-30T15:54:12.360Z,100553.59
2022-11-30T15:56:40.294Z,100560.34
2022-11-30T15:59:08.971Z,100551.16
2022-11-30T16:02:02.152Z,100553.31
2022-11-30T16:04:30.512Z,100551.41
2022-11-30T16:07:00.392Z,100558.19
2022-11-30T16:09:32.522Z,100538.34
2022-11-30T16:12:01.558Z,100556.00
2022-11-30T16:14:29.595Z,100557.44
2022-11-30T16:16:57.634Z,100559.63
2022-11-30T16:19:25.733Z,100565.44
2022-11-30T16:21:53.735Z,100565.94
2022-11-30T16:24:24.545Z,100567.38
2022-11-30T16:26:52.618Z,100572.22
2022-11-30T16:29:20.790Z,100574.38
2022-11-30T16:31:49.297Z,100575.25
2022-11-30T16:34:17.371Z,100566.16
2022-11-30T16:36:45.334Z,100567.38
2022-11-30T16:39:13.434Z,100569.28
2022-11-30T16:41:43.592Z,100567.13
2022-11-30T16:44:13.618Z,100551.50
2022-11-30T16:46:41.566Z,100574.88
2022-11-30T16:49:09.569Z,100568.09
2022-11-30T16:51:37.597Z,100570.03
2022-11-30T16:54:05.699Z,100571.59
2022-11-30T16:56:33.784Z,100564.47
2022-11-30T16:59:03.210Z,100571.59
2022-11-30T17:01:35.868Z,100573.66
2022-11-30T17:04:06.381Z,100575.13
2022-11-30T17:06:34.312Z,100585.75
2022-11-30T17:09:02.368Z,100580.22
2022-11-30T17:11:31.133Z,100576.19
2022-11-30T17:13:59.142Z,100551.66
2022-11-30T17:16:28.625Z,100576.81
2022-11-30T17:18:56.637Z,100572.91
2022-11-30T17:21:27.511Z,100568.31
2022-11-30T17:23:55.494Z,100578.97
2022-11-30T17:26:23.458Z,100572.56
2022-11-30T17:28:51.396Z,100579.34
2022-11-30T17:31:19.615Z,100573.41
2022-11-30T17:33:48.983Z,100576.44
2022-11-30T17:36:17.282Z,100578.50
2022-11-30T17:38:45.406Z,100572.09
2022-11-30T17:41:18.835Z,100572.34
2022-11-30T17:43:47.786Z,100574.38
2022-11-30T17:46:17.227Z,100578.63
2022-11-30T17:48:45.297Z,100575.13
2022-11-30T17:51:14.763Z,100566.91
2022-11-30T17:53:44.364Z,100581.66
2022-11-30T17:56:13.955Z,100572.22
2022-11-30T17:58:44.091Z,100565.22
2022-11-30T18:01:16.755Z,100575.13
2022-11-30T18:03:44.953Z,100561.06
2022-11-30T18:06:14.324Z,100567.25
2022-11-30T18:08:42.334Z,100570.03
2022-11-30T18:11:11.545Z,100566.28
2022-11-30T18:13:39.508Z,100568.09
2022-11-30T18:16:09.144Z,100568.84
2022-11-30T18:18:37.109Z,100566.41
2022-11-30T18:21:06.177Z,100566.28
2022-11-30T18:23:35.853Z,100564.25
2022-11-30T18:26:03.993Z,100571.50
2022-11-30T18:28:31.946Z,100573.19
2022-11-30T18:30:59.969Z,100564.81
2022-11-30T18:33:27.972Z,100560.84
2022-11-30T18:35:58.562Z,100561.06
2022-11-30T18:38:26.533Z,100564.81
2022-11-30T18:40:55.929Z,100565.22
2022-11-30T18:43:23.939Z,100566.16
2022-11-30T18:45:52.024Z,100564.94
2022-11-30T18:48:19.995Z,100551.03
2022-11-30T18:50:47.987Z,100569.91
2022-11-30T18:53:18.340Z,100571.38
2022-11-30T18:55:46.648Z,100563.97
2022-11-30T18:58:16.002Z,100570.88
2022-11-30T19:00:44.120Z,100580.66
2022-11-30T19:03:12.078Z,100576.81
2022-11-30T19:05:40.985Z,100580.44
2022-11-30T19:08:11.263Z,100575.84
2022-11-30T19:10:39.810Z,100581.91
2022-11-30T19:13:07.978Z,100575.97
2022-11-30T19:15:39.939Z,100578.75
2022-11-30T19:18:08.662Z,100582.25
2022-11-30T19:20:39.377Z,100582.75
2022-11-30T19:23:07.318Z,100565.69
2022-11-30T19:25:35.326Z,100586.00
2022-11-30T19:28:03.389Z,100588.19
2022-11-30T19:30:31.455Z,100586.84
2022-11-30T19:33:00.843Z,100594.00
2022-11-30T19:35:28.917Z,100598.13
2022-11-30T19:37:56.954Z,100599.09
2022-11-30T19:40:24.984Z,100604.66
2022-11-30T19:42:52.987Z,100608.16
2022-11-30T19:45:20.937Z,100601.13
2022-11-30T19:47:48.938Z,100601.25
2022-11-30T19:50:18.466Z,100601.25
2022-11-30T19:52:46.403Z,100612.41
2022-11-30T19:55:14.614Z,100601.00
2022-11-30T19:57:42.583Z,100603.78
2022-11-30T20:00:11.640Z,100608.88
2022-11-30T20:02:39.621Z,100607.81
2022-11-30T20:05:07.943Z,100598.84
2022-11-30T20:07:37.692Z,100595.56
2022-11-30T20:10:06.351Z,100599.09
2022-11-30T20:12:34.274Z,100596.16
2022-11-30T20:15:02.278Z,100594.22
2022-11-30T20:17:30.268Z,100594.00
2022-11-30T20:19:58.291Z,100593.25
2022-11-30T20:22:26.325Z,100584.44
2022-11-30T20:24:56.412Z,100588.44
2022-11-30T20:27:25.128Z,100583.69
2022-11-30T20:29:53.322Z,100588.91
2022-11-30T20:32:21.293Z,100583.56
2022-11-30T20:34:49.546Z,100589.53
2022-11-30T20:37:18.128Z,100585.03
2022-11-30T20:39:46.501Z,100576.81
2022-11-30T20:42:15.963Z,100587.22
2022-11-30T20:44:43.949Z,100586.47
2022-11-30T20:47:12.457Z,100593.25
2022-11-30T20:49:40.371Z,100597.75
2022-11-30T20:52:08.375Z,100593.53
2022-11-30T20:54:36.366Z,100597.16
2022-11-30T20:57:04.559Z,100592.69
2022-11-30T20:59:34.637Z,100594.97
2022-11-30T21:02:02.611Z,100585.78
2022-11-30T21:04:30.619Z,100587.72
2022-11-30T21:06:58.587Z,100594.72
2022-11-30T21:09:26.533Z,100589.88
2022-11-30T21:11:54.521Z,100588.19
2022-11-30T21:14:22.590Z,100580.91
2022-11-30T21:16:52.019Z,100589.88
2022-11-30T21:19:20.126Z,100589.88
2022-11-30T21:21:48.106Z,100593.75
2022-11-30T21:24:16.100Z,100602.22
2022-11-30T21:26:44.143Z,100572.34
2022-11-30T21:29:12.866Z,100598.34
2022-11-30T21:31:40.890Z,100593.25
2022-11-30T21:34:10.291Z,100598.84
2022-11-30T21:36:38.205Z,100594.22
2022-11-30T21:39:07.534Z,100582.63
2022-11-30T21:41:35.588Z,100581.31
2022-11-30T21:44:03.675Z,100587.47
2022-11-30T21:46:31.905Z,100577.06
2022-11-30T21:48:59.918Z,100580.06
2022-11-30T21:51:30.174Z,100584.06
2022-11-30T21:53:59.398Z,100589.88
2022-11-30T21:56:28.715Z,100589.41
2022-11-30T21:58:56.767Z,100594.72
2022-11-30T22:01:26.596Z,100587.47
2022-11-30T22:03:56.027Z,100596.16
2022-11-30T22:06:24.544Z,100580.19
2022-11-30T22:08:53.920Z,100590.84
2022-11-30T22:11:22.866Z,100583.47
2022-11-30T22:13:51.087Z,100581.75
2022-11-30T22:16:19.222Z,100586.25
2022-11-30T22:18:47.318Z,100586.25
2022-11-30T22:21:15.921Z,100580.34
2022-11-30T22:23:45.009Z,100584.81
2022-11-30T22:26:15.145Z,100580.56
2022-11-30T22:28:43.838Z,100581.41
2022-11-30T22:31:12.587Z,100586.50
2022-11-30T22:33:41.090Z,100588.91
2022-11-30T22:36:09.704Z,100577.78
2022-11-30T22:38:37.681Z,100563.00
2022-11-30T22:41:06.717Z,100587.69
2022-11-30T22:43:36.065Z,100586.75
2022-11-30T22:46:05.912Z,100591.56
2022-11-30T22:48:34.228Z,100582.38
2022-11-30T22:51:06.249Z,100586.50
2022-11-30T22:53:35.064Z,100579.22
2022-11-30T22:56:04.161Z,100582.88
2022-11-30T22:58:32.251Z,100572.69
2022-11-30T23:01:08.354Z,100580.34
2022-11-30T23:03:36.370Z,100574.75
2022-11-30T23:06:04.774Z,100566.41
2022-11-30T23:08:32.991Z,100558.88
2022-11-30T23:11:01.194Z,100556.72
2022-11-30T23:13:29.240Z,100541.09
2022-11-30T23:15:59.795Z,100560.22
2022-11-30T23:18:29.451Z,100561.31
2022-11-30T23:20:57.545Z,100556.47
2022-11-30T23:23:25.555Z,100564.09
2022-11-30T23:25:53.497Z,100563.25
2022-11-30T23:28:21.556Z,100568.84
2022-11-30T23:30:49.608Z,100565.44
2022-11-30T23:33:17.529Z,100563.50
2022-11-30T23:35:46.847Z,100567.13
2022-11-30T23:38:14.834Z,100561.81
2022-11-30T23:40:42.808Z,100556.47
2022-11-30T23:43:10.746Z,100550.19
2022-11-30T23:45:38.652Z,100543.06
2022-11-30T23:48:07.141Z,100552.75
2022-11-30T23:50:35.060Z,100548.25
2022-11-30T23:53:04.390Z,100553.47
2022-11-30T23:55:32.385Z,100556.72
2022-11-30T23:58:00.340Z,100560.34
